sensor_id;sensor_type;location;lat;lon;timestamp;P1;durP1;ratioP1;P2;durP2;ratioP2
77524;SDS011;66638;50.050;21.124;2024-02-28T00:03:22;17.90;;;9.10;;
77524;SDS011;66638;50.050;21.124;2024-02-28T00:06:10;16.10;;;10.00;;
77524;SDS011;66638;50.050;21.124;2024-02-28T00:08:58;13.00;;;8.50;;
77524;SDS011;66638;50.050;21.124;2024-02-28T00:11:46;14.80;;;9.10;;
77524;SDS011;66638;50.050;21.124;2024-02-28T00:14:33;16.20;;;8.70;;
77524;SDS011;66638;50.050;21.124;2024-02-28T00:20:08;15.10;;;7.80;;
77524;SDS011;66638;50.050;21.124;2024-02-28T00:22:56;13.60;;;8.30;;
77524;SDS011;66638;50.050;21.124;2024-02-28T00:25:44;11.80;;;7.20;;
77524;SDS011;66638;50.050;21.124;2024-02-28T00:28:31;10.70;;;6.50;;
77524;SDS011;66638;50.050;21.124;2024-02-28T00:31:18;12.50;;;7.10;;
77524;SDS011;66638;50.050;21.124;2024-02-28T00:34:06;13.10;;;8.70;;
77524;SDS011;66638;50.050;21.124;2024-02-28T00:36:55;17.40;;;10.90;;
77524;SDS011;66638;50.050;21.124;2024-02-28T00:39:44;15.20;;;8.50;;
77524;SDS011;66638;50.050;21.124;2024-02-28T00:42:32;16.20;;;8.80;;
77524;SDS011;66638;50.050;21.124;2024-02-28T00:45:19;14.90;;;7.90;;
77524;SDS011;66638;50.050;21.124;2024-02-28T00:48:07;14.90;;;9.10;;
77524;SDS011;66638;50.050;21.124;2024-02-28T00:50:54;12.20;;;7.30;;
77524;SDS011;66638;50.050;21.124;2024-02-28T00:53:41;10.00;;;6.50;;
77524;SDS011;66638;50.050;21.124;2024-02-28T00:56:30;11.80;;;8.00;;
77524;SDS011;66638;50.050;21.124;2024-02-28T00:59:18;13.90;;;7.50;;
77524;SDS011;66638;50.050;21.124;2024-02-28T01:02:05;15.20;;;9.60;;
77524;SDS011;66638;50.050;21.124;2024-02-28T01:04:52;14.50;;;8.70;;
77524;SDS011;66638;50.050;21.124;2024-02-28T01:07:40;16.90;;;10.80;;
77524;SDS011;66638;50.050;21.124;2024-02-28T01:10:27;14.00;;;9.20;;
77524;SDS011;66638;50.050;21.124;2024-02-28T01:13:14;14.70;;;9.40;;
77524;SDS011;66638;50.050;21.124;2024-02-28T01:16:02;17.90;;;9.50;;
77524;SDS011;66638;50.050;21.124;2024-02-28T01:18:50;19.00;;;10.30;;
77524;SDS011;66638;50.050;21.124;2024-02-28T01:21:38;17.00;;;10.10;;
77524;SDS011;66638;50.050;21.124;2024-02-28T01:24:26;12.80;;;7.50;;
77524;SDS011;66638;50.050;21.124;2024-02-28T01:27:13;12.40;;;7.60;;
77524;SDS011;66638;50.050;21.124;2024-02-28T01:32:48;13.60;;;8.00;;
77524;SDS011;66638;50.050;21.124;2024-02-28T01:35:35;10.20;;;7.10;;
77524;SDS011;66638;50.050;21.124;2024-02-28T01:38:22;13.40;;;7.20;;
77524;SDS011;66638;50.050;21.124;2024-02-28T01:41:09;11.00;;;7.30;;
77524;SDS011;66638;50.050;21.124;2024-02-28T01:43:56;9.10;;;6.90;;
77524;SDS011;66638;50.050;21.124;2024-02-28T01:46:44;15.10;;;7.80;;
77524;SDS011;66638;50.050;21.124;2024-02-28T01:49:31;13.00;;;8.20;;
77524;SDS011;66638;50.050;21.124;2024-02-28T01:52:19;16.80;;;10.20;;
77524;SDS011;66638;50.050;21.124;2024-02-28T01:55:07;14.10;;;8.60;;
77524;SDS011;66638;50.050;21.124;2024-02-28T01:57:56;12.00;;;7.50;;
77524;SDS011;66638;50.050;21.124;2024-02-28T02:00:43;12.70;;;8.10;;
77524;SDS011;66638;50.050;21.124;2024-02-28T02:03:31;15.80;;;8.90;;
77524;SDS011;66638;50.050;21.124;2024-02-28T02:06:21;16.70;;;8.90;;
77524;SDS011;66638;50.050;21.124;2024-02-28T02:09:10;15.30;;;8.90;;
77524;SDS011;66638;50.050;21.124;2024-02-28T02:11:57;14.70;;;8.60;;
77524;SDS011;66638;50.050;21.124;2024-02-28T02:20:23;18.20;;;9.80;;
77524;SDS011;66638;50.050;21.124;2024-02-28T02:23:12;18.00;;;10.40;;
77524;SDS011;66638;50.050;21.124;2024-02-28T02:25:59;15.80;;;9.50;;
77524;SDS011;66638;50.050;21.124;2024-02-28T02:28:46;15.00;;;8.70;;
77524;SDS011;66638;50.050;21.124;2024-02-28T02:34:21;14.50;;;7.90;;
77524;SDS011;66638;50.050;21.124;2024-02-28T02:37:09;12.90;;;8.20;;
77524;SDS011;66638;50.050;21.124;2024-02-28T02:39:56;17.00;;;8.20;;
77524;SDS011;66638;50.050;21.124;2024-02-28T02:42:43;14.00;;;9.10;;
77524;SDS011;66638;50.050;21.124;2024-02-28T02:45:30;14.40;;;8.60;;
77524;SDS011;66638;50.050;21.124;2024-02-28T02:51:05;13.60;;;8.00;;
77524;SDS011;66638;50.050;21.124;2024-02-28T02:53:52;11.90;;;7.50;;
77524;SDS011;66638;50.050;21.124;2024-02-28T02:56:43;16.50;;;9.00;;
77524;SDS011;66638;50.050;21.124;2024-02-28T02:59:30;17.60;;;9.80;;
77524;SDS011;66638;50.050;21.124;2024-02-28T03:02:18;12.50;;;8.90;;
77524;SDS011;66638;50.050;21.124;2024-02-28T03:05:06;15.50;;;7.90;;
77524;SDS011;66638;50.050;21.124;2024-02-28T03:07:54;13.30;;;7.60;;
77524;SDS011;66638;50.050;21.124;2024-02-28T03:10:41;12.80;;;7.90;;
77524;SDS011;66638;50.050;21.124;2024-02-28T03:16:16;14.20;;;8.40;;
77524;SDS011;66638;50.050;21.124;2024-02-28T03:19:03;14.90;;;8.50;;
77524;SDS011;66638;50.050;21.124;2024-02-28T03:21:51;11.10;;;7.20;;
77524;SDS011;66638;50.050;21.124;2024-02-28T03:24:38;15.20;;;8.40;;
77524;SDS011;66638;50.050;21.124;2024-02-28T03:30:13;14.60;;;8.30;;
77524;SDS011;66638;50.050;21.124;2024-02-28T03:33:00;18.60;;;9.40;;
77524;SDS011;66638;50.050;21.124;2024-02-28T03:35:47;15.90;;;9.60;;
77524;SDS011;66638;50.050;21.124;2024-02-28T03:41:22;16.30;;;9.10;;
77524;SDS011;66638;50.050;21.124;2024-02-28T03:44:09;16.20;;;9.10;;
77524;SDS011;66638;50.050;21.124;2024-02-28T03:46:57;14.80;;;8.70;;
77524;SDS011;66638;50.050;21.124;2024-02-28T03:49:44;19.90;;;9.30;;
77524;SDS011;66638;50.050;21.124;2024-02-28T03:52:31;16.00;;;9.70;;
77524;SDS011;66638;50.050;21.124;2024-02-28T03:55:18;14.70;;;8.30;;
77524;SDS011;66638;50.050;21.124;2024-02-28T03:58:06;12.80;;;8.90;;
77524;SDS011;66638;50.050;21.124;2024-02-28T04:00:55;15.60;;;9.30;;
77524;SDS011;66638;50.050;21.124;2024-02-28T04:03:42;16.00;;;8.90;;
77524;SDS011;66638;50.050;21.124;2024-02-28T04:06:29;12.40;;;7.10;;
77524;SDS011;66638;50.050;21.124;2024-02-28T04:09:17;13.70;;;7.50;;
77524;SDS011;66638;50.050;21.124;2024-02-28T04:12:04;13.20;;;7.70;;
77524;SDS011;66638;50.050;21.124;2024-02-28T04:14:52;14.10;;;8.50;;
77524;SDS011;66638;50.050;21.124;2024-02-28T04:17:39;13.90;;;8.30;;
77524;SDS011;66638;50.050;21.124;2024-02-28T04:20:27;12.50;;;8.30;;
77524;SDS011;66638;50.050;21.124;2024-02-28T04:23:14;16.70;;;9.10;;
77524;SDS011;66638;50.050;21.124;2024-02-28T04:26:02;12.30;;;7.50;;
77524;SDS011;66638;50.050;21.124;2024-02-28T04:28:50;13.00;;;7.90;;
77524;SDS011;66638;50.050;21.124;2024-02-28T04:31:37;13.30;;;7.20;;
77524;SDS011;66638;50.050;21.124;2024-02-28T04:34:25;14.70;;;9.40;;
77524;SDS011;66638;50.050;21.124;2024-02-28T04:39:59;13.20;;;7.80;;
77524;SDS011;66638;50.050;21.124;2024-02-28T04:42:47;12.90;;;6.50;;
77524;SDS011;66638;50.050;21.124;2024-02-28T04:45:34;10.80;;;7.10;;
77524;SDS011;66638;50.050;21.124;2024-02-28T04:48:22;12.60;;;8.20;;
77524;SDS011;66638;50.050;21.124;2024-02-28T04:53:57;10.20;;;6.90;;
77524;SDS011;66638;50.050;21.124;2024-02-28T04:56:44;12.70;;;7.50;;
77524;SDS011;66638;50.050;21.124;2024-02-28T04:59:33;13.50;;;8.00;;
77524;SDS011;66638;50.050;21.124;2024-02-28T05:02:20;10.80;;;6.50;;
77524;SDS011;66638;50.050;21.124;2024-02-28T05:05:13;13.60;;;7.40;;
77524;SDS011;66638;50.050;21.124;2024-02-28T05:08:00;15.00;;;7.60;;
77524;SDS011;66638;50.050;21.124;2024-02-28T05:13:34;11.10;;;7.00;;
77524;SDS011;66638;50.050;21.124;2024-02-28T05:16:22;14.30;;;6.40;;
77524;SDS011;66638;50.050;21.124;2024-02-28T05:19:09;11.60;;;7.40;;
77524;SDS011;66638;50.050;21.124;2024-02-28T05:21:56;12.00;;;7.30;;
77524;SDS011;66638;50.050;21.124;2024-02-28T05:24:47;12.40;;;8.10;;
77524;SDS011;66638;50.050;21.124;2024-02-28T05:27:34;10.80;;;6.90;;
77524;SDS011;66638;50.050;21.124;2024-02-28T05:30:22;10.40;;;6.90;;
77524;SDS011;66638;50.050;21.124;2024-02-28T05:33:09;11.70;;;7.60;;
77524;SDS011;66638;50.050;21.124;2024-02-28T05:35:58;14.20;;;8.40;;
77524;SDS011;66638;50.050;21.124;2024-02-28T05:38:47;11.80;;;7.40;;
77524;SDS011;66638;50.050;21.124;2024-02-28T05:41:34;12.40;;;6.90;;
77524;SDS011;66638;50.050;21.124;2024-02-28T05:44:22;14.10;;;7.40;;
77524;SDS011;66638;50.050;21.124;2024-02-28T05:47:09;18.60;;;9.80;;
77524;SDS011;66638;50.050;21.124;2024-02-28T05:49:56;15.90;;;10.00;;
77524;SDS011;66638;50.050;21.124;2024-02-28T05:52:45;45.60;;;26.50;;
77524;SDS011;66638;50.050;21.124;2024-02-28T05:55:32;29.80;;;20.40;;
77524;SDS011;66638;50.050;21.124;2024-02-28T05:58:19;18.60;;;11.10;;
77524;SDS011;66638;50.050;21.124;2024-02-28T06:01:07;22.70;;;12.40;;
77524;SDS011;66638;50.050;21.124;2024-02-28T06:03:55;21.00;;;12.30;;
77524;SDS011;66638;50.050;21.124;2024-02-28T06:06:42;23.00;;;14.30;;
77524;SDS011;66638;50.050;21.124;2024-02-28T06:09:30;25.40;;;12.90;;
77524;SDS011;66638;50.050;21.124;2024-02-28T06:12:18;31.80;;;23.60;;
77524;SDS011;66638;50.050;21.124;2024-02-28T06:15:05;27.70;;;15.80;;
77524;SDS011;66638;50.050;21.124;2024-02-28T06:17:52;18.00;;;11.50;;
77524;SDS011;66638;50.050;21.124;2024-02-28T06:20:40;18.10;;;10.70;;
77524;SDS011;66638;50.050;21.124;2024-02-28T06:23:27;16.70;;;10.20;;
77524;SDS011;66638;50.050;21.124;2024-02-28T06:26:15;29.80;;;15.90;;
77524;SDS011;66638;50.050;21.124;2024-02-28T06:29:05;17.10;;;10.20;;
77524;SDS011;66638;50.050;21.124;2024-02-28T06:31:53;14.90;;;8.60;;
77524;SDS011;66638;50.050;21.124;2024-02-28T06:34:42;22.50;;;11.70;;
77524;SDS011;66638;50.050;21.124;2024-02-28T06:37:29;14.20;;;9.30;;
77524;SDS011;66638;50.050;21.124;2024-02-28T06:40:17;14.10;;;8.20;;
77524;SDS011;66638;50.050;21.124;2024-02-28T06:43:05;16.20;;;8.50;;
77524;SDS011;66638;50.050;21.124;2024-02-28T06:45:52;12.50;;;8.30;;
77524;SDS011;66638;50.050;21.124;2024-02-28T06:48:40;15.00;;;8.60;;
77524;SDS011;66638;50.050;21.124;2024-02-28T06:51:27;15.90;;;10.30;;
77524;SDS011;66638;50.050;21.124;2024-02-28T06:54:14;17.00;;;12.70;;
77524;SDS011;66638;50.050;21.124;2024-02-28T06:57:02;16.70;;;11.10;;
77524;SDS011;66638;50.050;21.124;2024-02-28T06:59:49;18.70;;;10.90;;
77524;SDS011;66638;50.050;21.124;2024-02-28T07:02:36;16.00;;;11.40;;
77524;SDS011;66638;50.050;21.124;2024-02-28T07:05:24;13.50;;;8.30;;
77524;SDS011;66638;50.050;21.124;2024-02-28T07:08:12;13.70;;;9.20;;
77524;SDS011;66638;50.050;21.124;2024-02-28T07:10:59;14.40;;;8.20;;
77524;SDS011;66638;50.050;21.124;2024-02-28T07:13:47;14.00;;;7.70;;
77524;SDS011;66638;50.050;21.124;2024-02-28T07:16:35;11.00;;;7.30;;
77524;SDS011;66638;50.050;21.124;2024-02-28T07:19:22;14.90;;;7.00;;
77524;SDS011;66638;50.050;21.124;2024-02-28T07:22:10;13.70;;;7.60;;
77524;SDS011;66638;50.050;21.124;2024-02-28T07:24:57;13.10;;;7.50;;
77524;SDS011;66638;50.050;21.124;2024-02-28T07:27:44;15.00;;;8.20;;
77524;SDS011;66638;50.050;21.124;2024-02-28T07:30:31;13.00;;;6.30;;
77524;SDS011;66638;50.050;21.124;2024-02-28T07:33:19;11.10;;;5.80;;
77524;SDS011;66638;50.050;21.124;2024-02-28T07:36:06;12.70;;;6.80;;
77524;SDS011;66638;50.050;21.124;2024-02-28T07:38:54;13.10;;;6.80;;
77524;SDS011;66638;50.050;21.124;2024-02-28T07:41:41;9.90;;;6.00;;
77524;SDS011;66638;50.050;21.124;2024-02-28T07:44:29;10.80;;;6.90;;
77524;SDS011;66638;50.050;21.124;2024-02-28T07:47:17;14.10;;;6.90;;
77524;SDS011;66638;50.050;21.124;2024-02-28T07:50:05;10.10;;;6.00;;
77524;SDS011;66638;50.050;21.124;2024-02-28T07:52:54;10.70;;;6.20;;
77524;SDS011;66638;50.050;21.124;2024-02-28T07:55:42;9.70;;;5.90;;
77524;SDS011;66638;50.050;21.124;2024-02-28T07:58:29;11.20;;;6.30;;
77524;SDS011;66638;50.050;21.124;2024-02-28T08:01:16;10.10;;;6.50;;
77524;SDS011;66638;50.050;21.124;2024-02-28T08:04:04;9.90;;;5.80;;
77524;SDS011;66638;50.050;21.124;2024-02-28T08:06:51;10.50;;;6.40;;
77524;SDS011;66638;50.050;21.124;2024-02-28T08:09:38;9.20;;;6.10;;
77524;SDS011;66638;50.050;21.124;2024-02-28T08:12:26;12.80;;;6.20;;
77524;SDS011;66638;50.050;21.124;2024-02-28T08:15:13;11.10;;;6.20;;
77524;SDS011;66638;50.050;21.124;2024-02-28T08:18:00;11.10;;;6.20;;
77524;SDS011;66638;50.050;21.124;2024-02-28T08:20:47;11.00;;;6.40;;
77524;SDS011;66638;50.050;21.124;2024-02-28T08:23:36;10.40;;;6.50;;
77524;SDS011;66638;50.050;21.124;2024-02-28T08:26:23;8.40;;;6.10;;
77524;SDS011;66638;50.050;21.124;2024-02-28T08:29:10;11.90;;;6.70;;
77524;SDS011;66638;50.050;21.124;2024-02-28T08:31:58;10.80;;;6.00;;
77524;SDS011;66638;50.050;21.124;2024-02-28T08:34:45;11.00;;;6.50;;
77524;SDS011;66638;50.050;21.124;2024-02-28T08:37:33;8.50;;;5.90;;
77524;SDS011;66638;50.050;21.124;2024-02-28T08:40:20;7.90;;;6.20;;
77524;SDS011;66638;50.050;21.124;2024-02-28T08:43:07;8.80;;;6.10;;
77524;SDS011;66638;50.050;21.124;2024-02-28T08:45:55;12.10;;;5.90;;
77524;SDS011;66638;50.050;21.124;2024-02-28T08:48:42;13.70;;;5.90;;
77524;SDS011;66638;50.050;21.124;2024-02-28T08:51:30;11.00;;;6.20;;
77524;SDS011;66638;50.050;21.124;2024-02-28T08:54:17;9.50;;;5.70;;
77524;SDS011;66638;50.050;21.124;2024-02-28T08:57:04;8.90;;;5.80;;
77524;SDS011;66638;50.050;21.124;2024-02-28T08:59:52;11.10;;;6.70;;
77524;SDS011;66638;50.050;21.124;2024-02-28T09:02:39;9.50;;;5.90;;
77524;SDS011;66638;50.050;21.124;2024-02-28T09:05:26;11.40;;;6.30;;
77524;SDS011;66638;50.050;21.124;2024-02-28T09:08:13;11.50;;;6.40;;
77524;SDS011;66638;50.050;21.124;2024-02-28T09:11:01;10.30;;;6.40;;
77524;SDS011;66638;50.050;21.124;2024-02-28T09:13:49;13.10;;;7.70;;
77524;SDS011;66638;50.050;21.124;2024-02-28T09:16:37;12.20;;;7.70;;
77524;SDS011;66638;50.050;21.124;2024-02-28T09:19:24;10.40;;;7.10;;
77524;SDS011;66638;50.050;21.124;2024-02-28T09:22:11;10.50;;;6.30;;
77524;SDS011;66638;50.050;21.124;2024-02-28T09:24:58;12.00;;;6.80;;
77524;SDS011;66638;50.050;21.124;2024-02-28T09:27:46;9.50;;;6.20;;
77524;SDS011;66638;50.050;21.124;2024-02-28T09:30:33;10.30;;;7.70;;
77524;SDS011;66638;50.050;21.124;2024-02-28T09:33:21;10.40;;;6.50;;
77524;SDS011;66638;50.050;21.124;2024-02-28T09:36:08;29.10;;;15.90;;
77524;SDS011;66638;50.050;21.124;2024-02-28T09:38:55;71.10;;;33.20;;
77524;SDS011;66638;50.050;21.124;2024-02-28T09:41:43;48.50;;;24.90;;
77524;SDS011;66638;50.050;21.124;2024-02-28T09:44:30;18.80;;;11.10;;
77524;SDS011;66638;50.050;21.124;2024-02-28T09:47:18;45.20;;;23.40;;
77524;SDS011;66638;50.050;21.124;2024-02-28T09:50:06;11.90;;;8.70;;
77524;SDS011;66638;50.050;21.124;2024-02-28T09:52:54;25.70;;;12.90;;
77524;SDS011;66638;50.050;21.124;2024-02-28T09:55:42;12.60;;;7.10;;
77524;SDS011;66638;50.050;21.124;2024-02-28T09:58:30;10.80;;;7.70;;
77524;SDS011;66638;50.050;21.124;2024-02-28T10:01:18;11.20;;;6.90;;
77524;SDS011;66638;50.050;21.124;2024-02-28T10:04:07;11.30;;;6.50;;
77524;SDS011;66638;50.050;21.124;2024-02-28T10:06:59;13.10;;;6.20;;
77524;SDS011;66638;50.050;21.124;2024-02-28T10:09:59;9.70;;;6.10;;
77524;SDS011;66638;50.050;21.124;2024-02-28T10:12:46;12.00;;;6.80;;
77524;SDS011;66638;50.050;21.124;2024-02-28T10:15:34;12.10;;;6.50;;
77524;SDS011;66638;50.050;21.124;2024-02-28T10:18:21;13.90;;;7.20;;
77524;SDS011;66638;50.050;21.124;2024-02-28T10:21:08;16.50;;;10.00;;
77524;SDS011;66638;50.050;21.124;2024-02-28T10:23:57;12.60;;;6.40;;
77524;SDS011;66638;50.050;21.124;2024-02-28T10:26:45;10.90;;;6.70;;
77524;SDS011;66638;50.050;21.124;2024-02-28T10:29:43;11.30;;;6.90;;
77524;SDS011;66638;50.050;21.124;2024-02-28T10:32:33;11.90;;;7.10;;
77524;SDS011;66638;50.050;21.124;2024-02-28T10:35:22;10.30;;;6.90;;
77524;SDS011;66638;50.050;21.124;2024-02-28T10:38:12;9.90;;;6.30;;
77524;SDS011;66638;50.050;21.124;2024-02-28T10:41:00;14.10;;;6.40;;
77524;SDS011;66638;50.050;21.124;2024-02-28T10:43:49;14.30;;;6.70;;
77524;SDS011;66638;50.050;21.124;2024-02-28T10:46:37;9.10;;;5.90;;
77524;SDS011;66638;50.050;21.124;2024-02-28T10:49:25;10.60;;;6.80;;
77524;SDS011;66638;50.050;21.124;2024-02-28T10:52:12;10.00;;;6.70;;
77524;SDS011;66638;50.050;21.124;2024-02-28T10:55:01;12.50;;;7.30;;
77524;SDS011;66638;50.050;21.124;2024-02-28T10:57:50;13.50;;;6.80;;
77524;SDS011;66638;50.050;21.124;2024-02-28T11:00:57;14.80;;;8.70;;
77524;SDS011;66638;50.050;21.124;2024-02-28T11:03:45;16.40;;;9.30;;
77524;SDS011;66638;50.050;21.124;2024-02-28T11:06:33;11.10;;;7.50;;
77524;SDS011;66638;50.050;21.124;2024-02-28T11:09:22;12.90;;;8.30;;
77524;SDS011;66638;50.050;21.124;2024-02-28T11:12:23;15.80;;;7.50;;
77524;SDS011;66638;50.050;21.124;2024-02-28T11:15:16;11.90;;;8.20;;
77524;SDS011;66638;50.050;21.124;2024-02-28T11:18:07;12.20;;;7.70;;
77524;SDS011;66638;50.050;21.124;2024-02-28T11:21:00;12.90;;;7.60;;
77524;SDS011;66638;50.050;21.124;2024-02-28T11:23:48;11.90;;;7.10;;
77524;SDS011;66638;50.050;21.124;2024-02-28T11:26:35;12.00;;;8.30;;
77524;SDS011;66638;50.050;21.124;2024-02-28T11:29:28;11.60;;;7.00;;
77524;SDS011;66638;50.050;21.124;2024-02-28T11:32:16;13.20;;;7.80;;
77524;SDS011;66638;50.050;21.124;2024-02-28T11:35:04;14.40;;;8.70;;
77524;SDS011;66638;50.050;21.124;2024-02-28T11:37:52;15.30;;;8.40;;
77524;SDS011;66638;50.050;21.124;2024-02-28T11:40:49;19.50;;;10.80;;
77524;SDS011;66638;50.050;21.124;2024-02-28T11:43:37;23.20;;;11.80;;
77524;SDS011;66638;50.050;21.124;2024-02-28T11:46:24;16.50;;;8.80;;
77524;SDS011;66638;50.050;21.124;2024-02-28T11:49:12;15.90;;;9.10;;
77524;SDS011;66638;50.050;21.124;2024-02-28T11:51:59;11.00;;;7.20;;
77524;SDS011;66638;50.050;21.124;2024-02-28T11:54:47;12.30;;;7.70;;
77524;SDS011;66638;50.050;21.124;2024-02-28T11:57:34;14.10;;;8.60;;
77524;SDS011;66638;50.050;21.124;2024-02-28T12:00:22;11.50;;;7.40;;
77524;SDS011;66638;50.050;21.124;2024-02-28T12:03:10;11.30;;;6.60;;
77524;SDS011;66638;50.050;21.124;2024-02-28T12:05:58;9.60;;;6.70;;
77524;SDS011;66638;50.050;21.124;2024-02-28T12:08:46;11.10;;;7.00;;
77524;SDS011;66638;50.050;21.124;2024-02-28T12:11:33;13.00;;;6.80;;
77524;SDS011;66638;50.050;21.124;2024-02-28T12:14:22;12.90;;;7.50;;
77524;SDS011;66638;50.050;21.124;2024-02-28T12:17:10;12.50;;;6.90;;
77524;SDS011;66638;50.050;21.124;2024-02-28T12:20:00;12.50;;;6.40;;
77524;SDS011;66638;50.050;21.124;2024-02-28T12:22:48;13.40;;;6.70;;
77524;SDS011;66638;50.050;21.124;2024-02-28T12:25:35;10.30;;;6.70;;
77524;SDS011;66638;50.050;21.124;2024-02-28T12:28:22;11.00;;;7.20;;
77524;SDS011;66638;50.050;21.124;2024-02-28T12:31:10;11.90;;;7.40;;
77524;SDS011;66638;50.050;21.124;2024-02-28T12:33:58;11.90;;;7.70;;
77524;SDS011;66638;50.050;21.124;2024-02-28T12:36:46;12.70;;;7.60;;
77524;SDS011;66638;50.050;21.124;2024-02-28T12:39:33;12.60;;;8.60;;
77524;SDS011;66638;50.050;21.124;2024-02-28T12:42:20;13.70;;;8.10;;
77524;SDS011;66638;50.050;21.124;2024-02-28T12:45:08;12.50;;;7.80;;
77524;SDS011;66638;50.050;21.124;2024-02-28T12:47:56;12.20;;;7.40;;
77524;SDS011;66638;50.050;21.124;2024-02-28T12:50:43;14.80;;;7.70;;
77524;SDS011;66638;50.050;21.124;2024-02-28T12:53:31;12.80;;;7.80;;
77524;SDS011;66638;50.050;21.124;2024-02-28T12:56:18;19.00;;;7.70;;
77524;SDS011;66638;50.050;21.124;2024-02-28T12:59:06;12.60;;;7.00;;
77524;SDS011;66638;50.050;21.124;2024-02-28T13:01:56;12.40;;;8.20;;
77524;SDS011;66638;50.050;21.124;2024-02-28T13:04:44;12.50;;;7.60;;
77524;SDS011;66638;50.050;21.124;2024-02-28T13:07:32;10.90;;;7.90;;
77524;SDS011;66638;50.050;21.124;2024-02-28T13:10:19;15.70;;;8.10;;
77524;SDS011;66638;50.050;21.124;2024-02-28T13:13:08;12.70;;;6.90;;
77524;SDS011;66638;50.050;21.124;2024-02-28T13:15:55;12.90;;;8.10;;
77524;SDS011;66638;50.050;21.124;2024-02-28T13:18:42;13.70;;;7.80;;
77524;SDS011;66638;50.050;21.124;2024-02-28T13:21:30;11.60;;;7.10;;
77524;SDS011;66638;50.050;21.124;2024-02-28T13:24:21;14.70;;;7.40;;
77524;SDS011;66638;50.050;21.124;2024-02-28T13:27:08;15.80;;;7.60;;
77524;SDS011;66638;50.050;21.124;2024-02-28T13:29:55;10.80;;;6.60;;
77524;SDS011;66638;50.050;21.124;2024-02-28T13:32:43;14.20;;;7.70;;
77524;SDS011;66638;50.050;21.124;2024-02-28T13:35:30;14.70;;;7.60;;
77524;SDS011;66638;50.050;21.124;2024-02-28T13:38:18;14.70;;;8.00;;
77524;SDS011;66638;50.050;21.124;2024-02-28T13:41:06;11.00;;;7.60;;
77524;SDS011;66638;50.050;21.124;2024-02-28T13:43:53;10.90;;;7.80;;
77524;SDS011;66638;50.050;21.124;2024-02-28T13:46:40;11.40;;;6.90;;
77524;SDS011;66638;50.050;21.124;2024-02-28T13:49:28;12.40;;;6.90;;
77524;SDS011;66638;50.050;21.124;2024-02-28T13:52:15;14.10;;;7.20;;
77524;SDS011;66638;50.050;21.124;2024-02-28T13:55:03;12.00;;;7.20;;
77524;SDS011;66638;50.050;21.124;2024-02-28T13:57:51;14.00;;;7.90;;
77524;SDS011;66638;50.050;21.124;2024-02-28T14:00:38;12.10;;;7.60;;
77524;SDS011;66638;50.050;21.124;2024-02-28T14:03:26;16.20;;;8.60;;
77524;SDS011;66638;50.050;21.124;2024-02-28T14:06:13;17.70;;;7.70;;
77524;SDS011;66638;50.050;21.124;2024-02-28T14:09:01;13.70;;;8.30;;
77524;SDS011;66638;50.050;21.124;2024-02-28T14:11:49;15.70;;;8.20;;
77524;SDS011;66638;50.050;21.124;2024-02-28T14:14:36;14.70;;;9.30;;
77524;SDS011;66638;50.050;21.124;2024-02-28T14:17:23;20.40;;;9.60;;
77524;SDS011;66638;50.050;21.124;2024-02-28T14:20:10;16.70;;;9.90;;
77524;SDS011;66638;50.050;21.124;2024-02-28T14:22:58;13.50;;;8.10;;
77524;SDS011;66638;50.050;21.124;2024-02-28T14:25:46;18.50;;;10.00;;
77524;SDS011;66638;50.050;21.124;2024-02-28T14:28:33;23.10;;;10.50;;
77524;SDS011;66638;50.050;21.124;2024-02-28T14:31:22;14.60;;;9.10;;
77524;SDS011;66638;50.050;21.124;2024-02-28T14:34:10;19.70;;;10.60;;
77524;SDS011;66638;50.050;21.124;2024-02-28T14:36:57;19.90;;;10.90;;
77524;SDS011;66638;50.050;21.124;2024-02-28T14:39:44;15.50;;;9.10;;
77524;SDS011;66638;50.050;21.124;2024-02-28T14:42:32;16.40;;;9.90;;
77524;SDS011;66638;50.050;21.124;2024-02-28T14:45:20;14.70;;;10.00;;
77524;SDS011;66638;50.050;21.124;2024-02-28T14:48:07;19.90;;;12.00;;
77524;SDS011;66638;50.050;21.124;2024-02-28T14:50:55;17.70;;;12.30;;
77524;SDS011;66638;50.050;21.124;2024-02-28T14:53:42;14.70;;;11.00;;
77524;SDS011;66638;50.050;21.124;2024-02-28T14:56:29;14.70;;;9.20;;
77524;SDS011;66638;50.050;21.124;2024-02-28T15:02:03;15.60;;;9.50;;
77524;SDS011;66638;50.050;21.124;2024-02-28T15:04:51;18.60;;;12.10;;
77524;SDS011;66638;50.050;21.124;2024-02-28T15:07:38;19.50;;;11.50;;
77524;SDS011;66638;50.050;21.124;2024-02-28T15:10:26;24.30;;;13.00;;
77524;SDS011;66638;50.050;21.124;2024-02-28T15:13:13;27.40;;;14.90;;
77524;SDS011;66638;50.050;21.124;2024-02-28T15:18:46;23.60;;;14.50;;
77524;SDS011;66638;50.050;21.124;2024-02-28T15:21:34;24.60;;;15.30;;
77524;SDS011;66638;50.050;21.124;2024-02-28T15:24:22;25.10;;;16.30;;
77524;SDS011;66638;50.050;21.124;2024-02-28T15:27:09;23.10;;;14.80;;
77524;SDS011;66638;50.050;21.124;2024-02-28T15:29:59;26.70;;;15.60;;
77524;SDS011;66638;50.050;21.124;2024-02-28T15:32:47;23.10;;;15.20;;
77524;SDS011;66638;50.050;21.124;2024-02-28T15:35:35;19.60;;;12.90;;
77524;SDS011;66638;50.050;21.124;2024-02-28T15:38:23;21.00;;;12.90;;
77524;SDS011;66638;50.050;21.124;2024-02-28T15:41:10;23.30;;;14.30;;
77524;SDS011;66638;50.050;21.124;2024-02-28T15:43:58;25.30;;;15.00;;
77524;SDS011;66638;50.050;21.124;2024-02-28T15:46:46;25.20;;;15.20;;
77524;SDS011;66638;50.050;21.124;2024-02-28T15:49:34;23.20;;;14.30;;
77524;SDS011;66638;50.050;21.124;2024-02-28T15:52:21;29.60;;;18.50;;
77524;SDS011;66638;50.050;21.124;2024-02-28T15:55:10;40.50;;;23.20;;
77524;SDS011;66638;50.050;21.124;2024-02-28T15:57:58;33.70;;;19.80;;
77524;SDS011;66638;50.050;21.124;2024-02-28T16:00:46;27.90;;;17.50;;
77524;SDS011;66638;50.050;21.124;2024-02-28T16:03:33;22.90;;;13.60;;
77524;SDS011;66638;50.050;21.124;2024-02-28T16:06:20;23.70;;;14.00;;
77524;SDS011;66638;50.050;21.124;2024-02-28T16:09:10;24.30;;;12.70;;
77524;SDS011;66638;50.050;21.124;2024-02-28T16:11:57;25.90;;;14.30;;
77524;SDS011;66638;50.050;21.124;2024-02-28T16:14:45;22.00;;;13.30;;
77524;SDS011;66638;50.050;21.124;2024-02-28T16:17:32;23.50;;;14.50;;
77524;SDS011;66638;50.050;21.124;2024-02-28T16:20:19;21.20;;;13.00;;
77524;SDS011;66638;50.050;21.124;2024-02-28T16:23:07;21.70;;;13.00;;
77524;SDS011;66638;50.050;21.124;2024-02-28T16:25:55;26.90;;;15.10;;
77524;SDS011;66638;50.050;21.124;2024-02-28T16:28:45;25.80;;;14.10;;
77524;SDS011;66638;50.050;21.124;2024-02-28T16:31:33;28.50;;;17.50;;
77524;SDS011;66638;50.050;21.124;2024-02-28T16:34:20;24.90;;;14.80;;
77524;SDS011;66638;50.050;21.124;2024-02-28T16:37:10;22.00;;;13.40;;
77524;SDS011;66638;50.050;21.124;2024-02-28T16:39:57;28.10;;;16.80;;
77524;SDS011;66638;50.050;21.124;2024-02-28T16:42:44;27.60;;;17.60;;
77524;SDS011;66638;50.050;21.124;2024-02-28T16:45:31;26.90;;;16.40;;
77524;SDS011;66638;50.050;21.124;2024-02-28T16:48:19;28.00;;;16.20;;
77524;SDS011;66638;50.050;21.124;2024-02-28T16:51:07;25.50;;;14.60;;
77524;SDS011;66638;50.050;21.124;2024-02-28T16:53:55;20.60;;;13.40;;
77524;SDS011;66638;50.050;21.124;2024-02-28T16:56:42;32.60;;;17.80;;
77524;SDS011;66638;50.050;21.124;2024-02-28T16:59:30;30.50;;;17.80;;